createdAt,value
2023-03-23T15:59:40.260Z,99519.94
2023-03-23T16:02:43.741Z,99440.75
2023-03-23T16:05:46.737Z,99565.03
2023-03-23T16:08:53.878Z,99466.56
2023-03-23T16:11:57.867Z,99553.78
2023-03-23T16:15:02.454Z,99550.94
2023-03-23T16:18:05.479Z,99504.72
2023-03-23T16:21:09.169Z,99449.34
2023-03-23T16:24:12.009Z,99490.59
2023-03-23T16:27:15.120Z,99501.50
2023-03-23T16:30:21.476Z,99439.41
2023-03-23T16:33:24.375Z,99500.84
2023-03-23T16:36:27.263Z,99582.28
2023-03-23T16:39:30.244Z,99576.81
2023-03-23T16:42:33.123Z,99504.34
2023-03-23T16:45:38.218Z,99443.53
2023-03-23T16:48:41.446Z,99502.19
2023-03-23T16:51:44.280Z,99524.69
2023-03-23T16:54:47.273Z,99545.47
2023-03-23T16:57:49.997Z,99566.47
2023-03-23T17:00:54.546Z,99434.81
2023-03-23T17:03:57.618Z,99575.84
2023-03-23T17:07:01.029Z,99563.44
2023-03-23T17:10:06.062Z,99501.09
2023-03-23T17:13:09.727Z,99540.66
2023-03-23T17:16:13.952Z,99497.19
2023-03-23T17:19:16.855Z,99555.06
2023-03-23T17:22:20.457Z,99555.19
2023-03-23T17:25:23.282Z,99453.22
2023-03-23T17:28:26.221Z,99551.38
2023-03-23T17:31:30.480Z,99471.59
2023-03-23T17:34:33.384Z,99473.50
2023-03-23T17:37:37.919Z,99493.81
2023-03-23T17:40:40.860Z,99559.44
2023-03-23T17:43:44.075Z,99520.28
2023-03-23T17:46:48.321Z,99513.41
2023-03-23T17:49:51.269Z,99548.75
2023-03-23T17:52:54.120Z,99469.75
2023-03-23T17:55:57.637Z,99442.59
2023-03-23T17:59:00.414Z,99553.03
2023-03-23T18:02:04.982Z,99512.97
2023-03-23T18:05:09.636Z,99538.16
2023-03-23T18:08:12.694Z,99506.16
2023-03-23T18:11:15.611Z,99495.63
2023-03-23T18:14:18.545Z,99498.09
2023-03-23T18:17:23.257Z,99518.78
2023-03-23T18:20:26.231Z,99506.59
2023-03-23T18:23:29.742Z,99558.88
2023-03-23T18:26:32.528Z,99534.03
2023-03-23T18:29:35.238Z,99551.44
2023-03-23T18:32:40.552Z,99560.56
2023-03-23T18:35:44.376Z,99542.94
2023-03-23T18:38:48.255Z,99544.38
2023-03-23T18:41:51.246Z,99503.44
2023-03-23T18:44:55.252Z,99537.53
2023-03-23T18:47:59.544Z,99523.78
2023-03-23T18:51:02.616Z,99526.22
2023-03-23T18:54:05.987Z,99449.97
2023-03-23T18:57:08.887Z,99518.81
2023-03-23T19:00:12.743Z,99452.16
2023-03-23T19:03:17.109Z,99546.25
2023-03-23T19:06:22.730Z,99499.63
2023-03-23T19:09:25.920Z,99549.94
2023-03-23T19:12:28.900Z,99536.88
2023-03-23T19:15:31.791Z,99562.34
2023-03-23T19:18:36.235Z,99530.44
2023-03-23T19:21:40.444Z,99551.03
2023-03-23T19:24:43.237Z,99500.38
2023-03-23T19:28:23.155Z,99523.81
2023-03-23T19:31:09.543Z,99498.91
2023-03-23T19:34:15.134Z,99518.59
2023-03-23T19:37:18.624Z,99494.81
2023-03-23T19:40:36.584Z,99483.16
2023-03-23T19:43:43.894Z,99521.84
2023-03-23T19:46:48.403Z,99512.25
2023-03-23T19:49:52.849Z,99491.13
2023-03-23T19:52:58.397Z,99512.72
2023-03-23T19:56:05.094Z,99516.56
2023-03-23T19:59:10.617Z,99419.72
2023-03-23T20:02:14.406Z,99503.50
2023-03-23T20:05:19.753Z,99505.16
2023-03-23T20:08:22.557Z,99506.13
2023-03-23T20:11:25.434Z,99506.13
2023-03-23T20:14:29.349Z,99473.38
2023-03-23T20:17:33.293Z,99517.47
2023-03-23T20:20:44.322Z,99511.25
2023-03-23T20:23:48.863Z,99503.84
2023-03-23T20:26:59.326Z,99435.59
2023-03-23T20:30:20.566Z,99453.47
2023-03-23T20:33:29.040Z,99505.56
2023-03-23T20:36:36.311Z,99490.47
2023-03-23T20:39:47.820Z,99488.19
2023-03-23T20:42:54.736Z,99483.47
2023-03-23T20:45:58.533Z,99500.22
2023-03-23T20:49:02.450Z,99477.97
2023-03-23T20:52:11.869Z,99487.22
2023-03-23T20:55:15.660Z,99493.22
2023-03-23T20:58:19.186Z,99488.84
2023-03-23T21:01:22.465Z,99480.69
2023-03-23T21:04:27.261Z,99476.16
2023-03-23T21:07:31.651Z,99490.31
2023-03-23T21:10:35.258Z,99483.44
2023-03-23T21:13:37.957Z,99483.84
2023-03-23T21:16:41.584Z,99480.31
2023-03-23T21:19:44.414Z,99481.97
2023-03-23T21:22:48.515Z,99472.38
2023-03-23T21:25:51.328Z,99469.56
2023-03-23T21:28:54.852Z,99465.00
2023-03-23T21:35:04.458Z,99460.22
2023-03-23T21:38:14.111Z,99450.38
2023-03-23T21:41:16.815Z,99442.41
2023-03-23T21:44:19.597Z,99429.03
2023-03-23T21:47:22.310Z,99435.41
2023-03-23T21:50:25.271Z,99442.31
2023-03-23T21:53:30.935Z,99432.97
2023-03-23T21:56:33.944Z,99433.72
2023-03-23T21:59:36.643Z,99438.81
2023-03-23T22:02:40.489Z,99434.63
2023-03-23T22:05:44.132Z,99416.41
2023-03-23T22:08:49.427Z,99401.50
2023-03-23T22:11:52.164Z,99438.13
2023-03-23T22:14:54.891Z,99432.09
2023-03-23T22:17:57.670Z,99423.97
2023-03-23T22:21:00.500Z,99431.03
2023-03-23T22:24:05.326Z,99430.75
2023-03-23T22:27:08.029Z,99431.75
2023-03-23T22:30:12.142Z,99416.19
2023-03-23T22:33:14.931Z,99414.25
2023-03-23T22:36:18.227Z,99400.25
2023-03-23T22:39:22.336Z,99395.16
2023-03-23T22:42:25.192Z,99393.59
2023-03-23T22:45:28.092Z,99389.53
2023-03-23T22:48:31.600Z,99396.31
2023-03-23T22:51:34.366Z,99394.25
2023-03-23T22:54:38.386Z,99379.84
2023-03-23T22:57:41.038Z,99390.50
2023-03-23T23:00:46.267Z,99392.09
2023-03-23T23:03:49.831Z,99381.06
2023-03-23T23:07:00.424Z,99374.28
2023-03-23T23:10:10.956Z,99377.91
2023-03-23T23:13:14.607Z,99376.66
2023-03-23T23:16:18.495Z,99374.63
2023-03-23T23:19:21.322Z,99368.25
2023-03-23T23:22:24.051Z,99372.78
2023-03-23T23:25:28.635Z,99373.59
2023-03-23T23:28:31.842Z,99385.19
2023-03-23T23:31:34.650Z,99388.59
2023-03-23T23:34:37.801Z,99375.81
2023-03-23T23:37:40.687Z,99389.94
2023-03-23T23:40:46.763Z,99384.53
2023-03-23T23:43:50.027Z,99369.81
2023-03-23T23:46:52.759Z,99372.03
2023-03-23T23:49:55.518Z,99368.34
2023-03-23T23:52:58.602Z,99366.22
2023-03-23T23:56:04.394Z,99369.81
2023-03-23T23:59:07.066Z,99358.84
